SAZT/TDL METAR and TAF weather

Enter ICAO airport designator
Station Type Date Time Source
SAZT METAR 2019/04/17 17:40 UTC NOAA

SAZT 171740Z 32019G31KT 9999 FEW030 BKN200 21/13 Q1011


Station Type Date Time Source
SAZT Decoded METAR 2019/04/17 17:40 UTC NOAA

Tandil Aerodrome, Argentina (SAZT) 37-14S 059-15W 175M
Apr 17, 2019 - 01:40 PM EDT / 2019.04.17 1740 UTC
Wind: from the NW (320 degrees) at 22 MPH (19 KT) gusting to 36 MPH (31 KT):0
Visibility: greater than 7 mile(s):0
Sky conditions: mostly cloudy
Temperature: 69 F (21 C)
Dew Point: 55 F (13 C)
Relative Humidity: 60%
Pressure (altimeter): 29.85 in. Hg (1011 hPa)
ob: SAZT 171740Z 32019G31KT 9999 FEW030 BKN200 21/13 Q1011
cycle: 17

Station Type Date Time Source
SAZT TAF UTC NOAA

Error!

Example: see airport list